Time;durP1;ratioP1;P1;durP2;ratioP2;P2;SDS_P1;SDS_P2;PMS_P1;PMS_P2;Temp;Humidity;BMP_temperature;BMP_pressure;BME280_temperature;BME280_humidity;BME280_pressure;Samples;Min_cycle;Max_cycle;Signal;HPM_P1;HPM_P2
2020/12/16 00:00:01;;;;;;;28.07;14.40;;;;;;;0.25;73.58;97003.57;1801872;79;21540;-83
2020/12/16 00:02:30;;;;;;;26.60;14.50;;;;;;;0.19;73.86;96999.18;1802325;79;21100;-83
2020/12/16 00:04:57;;;;;;;28.62;13.80;;;;;;;0.19;73.86;96999.69;1802175;79;21126;-83
2020/12/16 00:07:24;;;;;;;27.70;14.83;;;;;;;0.17;73.88;97007.70;1801895;79;21127;-83
2020/12/16 00:09:50;;;;;;;27.50;15.32;;;;;;;0.06;74.17;97008.81;1801873;79;21126;-83
2020/12/16 00:12:18;;;;;;;24.63;13.20;;;;;;;-0.10;74.23;96995.20;1801946;79;21130;-83
2020/12/16 00:14:45;;;;;;;23.83;13.70;;;;;;;-0.19;74.58;96997.69;1801968;80;21139;-83
2020/12/16 00:17:13;;;;;;;24.32;14.90;;;;;;;-0.22;74.83;97004.61;1801992;79;21139;-83
2020/12/16 00:19:42;;;;;;;28.67;16.80;;;;;;;-0.23;75.00;97001.70;1802010;79;21100;-83
2020/12/16 00:22:10;;;;;;;26.52;14.95;;;;;;;-0.19;75.21;97003.41;1801909;80;21496;-83
2020/12/16 00:24:37;;;;;;;26.70;14.38;;;;;;;-0.11;75.29;97007.92;1802221;79;21131;-83
2020/12/16 00:27:05;;;;;;;25.52;14.55;;;;;;;-0.07;75.19;97009.62;1802026;79;21140;-83
2020/12/16 00:29:31;;;;;;;26.50;14.65;;;;;;;-0.04;75.16;97012.63;1802131;80;21151;-83
2020/12/16 00:31:58;;;;;;;28.12;13.35;;;;;;;-0.07;74.98;97018.23;1801868;79;21143;-83
2020/12/16 00:34:25;;;;;;;22.73;13.65;;;;;;;-0.06;75.08;97018.54;1801855;79;21163;-83
2020/12/16 00:36:52;;;;;;;25.55;13.90;;;;;;;-0.09;75.11;97005.91;1801972;79;21479;-83
2020/12/16 00:39:19;;;;;;;25.23;15.13;;;;;;;-0.08;75.28;97006.22;1801961;79;21504;-83
2020/12/16 00:41:46;;;;;;;25.52;14.33;;;;;;;-0.06;75.38;97010.72;1801417;79;21135;-83
2020/12/16 00:44:13;;;;;;;25.92;14.50;;;;;;;-0.05;75.34;97010.22;1801045;80;21301;-83
2020/12/16 00:46:40;;;;;;;29.87;14.93;;;;;;;-0.03;75.39;97006.41;1801250;79;21100;-83
2020/12/16 00:49:08;;;;;;;26.42;14.03;;;;;;;0.01;75.41;97006.83;1801200;79;21254;-83
2020/12/16 00:51:35;;;;;;;24.43;12.58;;;;;;;0.07;75.53;97010.42;1800997;79;21281;-83
2020/12/16 00:54:02;;;;;;;26.23;13.25;;;;;;;0.08;75.56;97004.20;1801028;80;21289;-83
2020/12/16 00:56:29;;;;;;;24.02;13.32;;;;;;;-0.05;75.44;97010.22;1801040;79;21269;-83
2020/12/16 00:58:56;;;;;;;26.30;14.38;;;;;;;-0.18;75.57;97011.02;1801014;79;21273;-83
2020/12/16 01:01:23;;;;;;;26.10;14.63;;;;;;;-0.25;75.78;97014.14;1801035;79;21507;-83
2020/12/16 01:03:50;;;;;;;25.37;12.75;;;;;;;-0.23;76.02;97011.33;1801057;79;21132;-83
2020/12/16 01:06:17;;;;;;;25.00;12.30;;;;;;;-0.18;76.01;97014.92;1801339;79;21131;-82
2020/12/16 01:08:44;;;;;;;24.07;14.50;;;;;;;-0.17;76.15;97005.30;1801443;80;21129;-83
2020/12/16 01:11:11;;;;;;;25.00;14.03;;;;;;;-0.13;76.27;97009.13;1801164;80;21131;-83
2020/12/16 01:13:37;;;;;;;24.82;13.55;;;;;;;-0.09;76.34;97002.01;1801166;79;21151;-83
2020/12/16 01:16:04;;;;;;;24.12;13.20;;;;;;;-0.05;76.30;96999.29;1801315;80;21135;-83
2020/12/16 01:18:31;;;;;;;31.62;16.45;;;;;;;-0.02;76.25;97000.69;1801111;80;21147;-83
2020/12/16 01:20:59;;;;;;;25.50;14.78;;;;;;;-0.10;76.26;96996.50;1801200;80;21100;-83
2020/12/16 01:23:26;;;;;;;28.12;15.25;;;;;;;-0.11;76.30;96996.70;1801199;79;21131;-83
2020/12/16 01:25:53;;;;;;;31.30;15.40;;;;;;;-0.25;76.36;96972.95;1801310;80;21125;-83
2020/12/16 01:28:21;;;;;;;30.40;15.78;;;;;;;-0.16;76.27;96991.27;1783231;80;21135;-83
2020/12/16 01:30:48;;;;;;;32.30;15.63;;;;;;;-0.15;76.29;96996.28;1801195;79;21140;-83
2020/12/16 01:33:15;;;;;;;27.42;14.85;;;;;;;-0.13;76.35;96994.80;1801123;79;21100;-83
2020/12/16 01:35:42;;;;;;;26.40;15.63;;;;;;;-0.11;76.54;96994.89;1801292;79;21139;-83
2020/12/16 01:38:10;;;;;;;24.90;13.58;;;;;;;-0.13;76.62;96991.70;1801120;80;21126;-83
2020/12/16 01:40:37;;;;;;;26.07;14.15;;;;;;;-0.13;76.85;96994.80;1801190;80;21152;-83
2020/12/16 01:43:04;;;;;;;28.45;15.00;;;;;;;-0.18;76.95;96996.69;1801064;79;21124;-83
2020/12/16 01:45:31;;;;;;;28.02;14.53;;;;;;;-0.22;76.81;96992.88;1801388;79;21127;-83
2020/12/16 01:47:59;;;;;;;27.07;14.55;;;;;;;-0.31;76.58;96996.68;1801280;79;21126;-83
2020/12/16 01:50:27;;;;;;;27.55;15.10;;;;;;;-0.36;76.67;96993.88;1801104;80;21140;-83
2020/12/16 01:52:58;;;;;;;27.07;13.88;;;;;;;-0.44;76.62;96996.67;1801181;79;21135;-83
2020/12/16 01:55:26;;;;;;;26.00;14.20;;;;;;;-0.46;76.73;96991.66;1801519;79;21072;-82
2020/12/16 01:57:59;;;;;;;24.05;14.15;;;;;;;-0.46;76.80;96998.67;1801149;79;21269;-83
2020/12/16 02:00:27;;;;;;;24.63;13.50;;;;;;;-0.53;76.91;97003.09;1801232;80;21104;-83
2020/12/16 02:02:56;;;;;;;24.77;13.53;;;;;;;-0.63;77.28;97007.36;1801094;79;21232;-83
2020/12/16 02:05:26;;;;;;;26.52;14.98;;;;;;;-0.63;77.63;97004.77;1801199;79;21120;-82
2020/12/16 02:07:55;;;;;;;26.50;13.63;;;;;;;-0.64;77.62;97009.17;1801404;79;21120;-82
2020/12/16 02:10:22;;;;;;;23.80;12.03;;;;;;;-0.64;77.55;97008.37;1801131;79;21143;-82
2020/12/16 02:12:49;;;;;;;22.48;13.05;;;;;;;-0.65;77.54;97004.16;1780429;79;21550;-82
2020/12/16 02:15:16;;;;;;;25.77;12.73;;;;;;;-0.66;77.63;97011.17;1766109;81;21126;-82
2020/12/16 02:17:43;;;;;;;25.50;13.93;;;;;;;-0.73;77.69;97001.73;1766083;81;21125;-82
2020/12/16 02:20:10;;;;;;;34.95;17.60;;;;;;;-0.72;78.02;97022.35;1766182;81;21164;-83
2020/12/16 02:22:37;;;;;;;26.10;14.43;;;;;;;-0.75;78.18;97020.15;1766183;81;21133;-82
2020/12/16 02:25:08;;;;;;;25.08;13.75;;;;;;;-0.72;78.38;97024.16;1766550;81;21134;-83
2020/12/16 02:27:36;;;;;;;27.67;14.90;;;;;;;-0.68;78.56;97019.68;1766196;81;21634;-82
2020/12/16 02:30:10;;;;;;;30.88;14.03;;;;;;;-0.67;78.63;97026.99;1766340;81;21280;-83
2020/12/16 02:32:37;;;;;;;31.85;17.57;;;;;;;-0.70;78.38;97025.59;1766211;81;21119;-82
2020/12/16 02:35:05;;;;;;;24.87;14.80;;;;;;;-0.78;78.89;97030.96;1766120;81;21115;-83
2020/12/16 02:37:32;;;;;;;22.13;11.95;;;;;;;-0.90;79.14;97029.41;1766085;81;21268;-83
2020/12/16 02:40:00;;;;;;;24.47;13.05;;;;;;;-0.96;79.19;97032.01;1766095;81;21159;-82
2020/12/16 02:42:30;;;;;;;22.62;12.95;;;;;;;-0.98;79.17;97045.22;1782390;80;21559;-82
2020/12/16 02:44:58;;;;;;;27.90;14.35;;;;;;;-0.95;79.08;97033.61;1802110;79;21143;-82
2020/12/16 02:47:26;;;;;;;25.15;14.28;;;;;;;-1.05;78.77;97027.96;1802106;79;21123;-82
2020/12/16 02:49:53;;;;;;;28.40;14.87;;;;;;;-1.05;78.77;97027.96;1802217;80;21131;-83
2020/12/16 02:52:20;;;;;;;24.07;12.85;;;;;;;-0.94;78.78;97045.13;1802037;79;21096;-82
2020/12/16 02:54:47;;;;;;;30.20;14.13;;;;;;;-0.99;78.60;97046.69;1802258;80;21277;-83
2020/12/16 02:57:14;;;;;;;24.52;14.18;;;;;;;-1.05;78.81;97055.28;1802281;79;21135;-82
2020/12/16 02:59:55;;;;;;;32.13;18.10;;;;;;;-1.05;78.81;97055.28;1801761;79;21567;-82
2020/12/16 03:02:23;;;;;;;;;;;;;;;-1.01;78.80;97056.48;1804641;79;21086;-83
2020/12/16 03:04:50;;;;;;;24.85;12.78;;;;;;;-0.98;78.88;97053.52;1770483;80;20131;-82
2020/12/16 03:07:17;;;;;;;22.70;12.35;;;;;;;-1.07;79.05;97052.08;1801995;79;21101;-82
2020/12/16 03:09:44;;;;;;;21.62;10.75;;;;;;;-1.15;79.09;97057.42;1770452;80;21229;-82
2020/12/16 03:12:11;;;;;;;19.17;11.73;;;;;;;-1.20;79.25;97053.61;1759323;80;21155;-82
2020/12/16 03:14:38;;;;;;;19.30;10.10;;;;;;;-1.19;79.52;97062.22;1758285;82;21152;-82
2020/12/16 03:17:05;;;;;;;18.30;10.32;;;;;;;-1.11;79.77;97043.86;1761610;81;21115;-82
2020/12/16 03:19:32;;;;;;;18.23;9.60;;;;;;;-1.04;79.83;97055.08;1761419;81;21167;-82
2020/12/16 03:21:59;;;;;;;24.23;11.63;;;;;;;-0.97;79.87;97059.83;1761607;81;21140;-82
2020/12/16 03:24:26;;;;;;;21.20;11.12;;;;;;;-0.94;79.55;97062.04;1761583;81;21140;-82
2020/12/16 03:26:53;;;;;;;16.57;10.13;;;;;;;-1.01;79.31;97053.89;1761596;81;21143;-83
2020/12/16 03:29:20;;;;;;;29.95;16.97;;;;;;;-0.99;79.39;97059.20;1761429;81;21455;-82
2020/12/16 03:31:47;;;;;;;27.75;14.23;;;;;;;-1.01;79.39;97064.30;1761494;81;21136;-82
2020/12/16 03:34:14;;;;;;;27.00;15.55;;;;;;;-1.01;79.35;97054.69;1761561;81;21540;-82
2020/12/16 03:36:41;;;;;;;20.52;11.60;;;;;;;-1.10;79.31;97057.17;1761724;81;21438;-82
2020/12/16 03:39:08;;;;;;;22.77;12.90;;;;;;;-1.21;79.65;97061.61;1761487;81;21163;-82
2020/12/16 03:41:35;;;;;;;21.95;12.33;;;;;;;-1.28;80.10;97055.06;1764709;80;21157;-82
2020/12/16 03:44:02;;;;;;;21.27;12.23;;;;;;;-1.27;80.40;97055.39;1792803;80;21179;-82
2020/12/16 03:46:29;;;;;;;19.25;10.32;;;;;;;-1.27;80.40;97055.39;1792691;80;21493;-82
2020/12/16 03:48:57;;;;;;;16.85;9.53;;;;;;;-1.15;80.84;97059.53;1792729;80;21112;-82
2020/12/16 03:51:23;;;;;;;17.37;9.60;;;;;;;-1.15;80.84;97059.53;1792683;80;21135;-82
2020/12/16 03:53:50;;;;;;;17.98;10.28;;;;;;;-1.14;80.80;97046.83;1792659;80;21523;-82
2020/12/16 03:56:17;;;;;;;16.05;9.55;;;;;;;-0.96;80.86;97047.62;1792893;80;21163;-82
2020/12/16 03:58:48;;;;;;;16.65;7.20;;;;;;;-0.96;80.86;97047.62;1792556;80;21135;-82
2020/12/16 04:01:19;;;;;;;12.65;7.83;;;;;;;-0.90;80.79;97050.23;1793069;80;21136;-82
2020/12/16 04:03:46;;;;;;;21.70;10.05;;;;;;;-0.81;80.83;97056.09;1792956;80;21140;-82
2020/12/16 04:06:14;;;;;;;26.02;13.45;;;;;;;-0.75;80.72;97062.30;1792691;80;21140;-82
2020/12/16 04:08:44;;;;;;;24.60;12.33;;;;;;;-0.72;80.41;97063.20;1792931;80;21143;-82
2020/12/16 04:11:18;;;;;;;30.95;15.08;;;;;;;-0.81;80.33;97039.66;1792865;80;21164;-82
2020/12/16 04:13:46;;;;;;;27.17;14.20;;;;;;;-0.75;80.17;97065.70;1792352;80;21139;-82
2020/12/16 04:16:22;;;;;;;24.87;13.20;;;;;;;-0.91;80.07;97070.75;1792775;80;21499;-82
2020/12/16 04:18:50;;;;;;;24.77;11.78;;;;;;;-1.00;80.15;97062.80;1792894;80;21120;-82
2020/12/16 04:21:20;;;;;;;23.92;12.47;;;;;;;-0.94;80.39;97070.34;1792731;80;21136;-82
2020/12/16 04:23:48;;;;;;;26.77;14.47;;;;;;;-0.92;80.43;97059.24;1792860;80;21155;-82
2020/12/16 04:26:15;;;;;;;27.07;16.55;;;;;;;-0.91;80.53;97062.14;1792630;80;21131;-82
2020/12/16 04:28:42;;;;;;;33.70;21.35;;;;;;;-0.91;80.69;97069.95;1792583;80;21154;-82
2020/12/16 04:31:11;;;;;;;44.90;27.60;;;;;;;-0.90;80.82;97063.25;1792654;80;21144;-82
2020/12/16 04:33:40;;;;;;;31.23;18.77;;;;;;;-0.81;81.00;97067.80;1792680;80;22436;-82
2020/12/16 04:36:10;;;;;;;17.27;11.03;;;;;;;-0.81;81.00;97067.80;1792680;80;21460;-82
2020/12/16 04:38:37;;;;;;;18.20;10.25;;;;;;;-0.74;81.09;97070.41;1792821;80;21115;-82
2020/12/16 04:41:08;;;;;;;18.02;10.40;;;;;;;-0.67;80.99;97068.65;1792600;80;21174;-82
2020/12/16 04:43:42;;;;;;;21.33;11.28;;;;;;;-0.73;81.01;97075.92;1792001;80;21175;-82
2020/12/16 04:46:13;;;;;;;19.42;10.50;;;;;;;-0.66;81.08;97084.06;1791447;80;21281;-82
2020/12/16 04:48:44;;;;;;;23.90;12.13;;;;;;;-0.61;81.15;97093.39;1792042;80;21127;-82
2020/12/16 04:51:15;;;;;;;21.73;12.55;;;;;;;-0.76;81.44;97080.22;1792111;80;21641;-82
2020/12/16 04:53:45;;;;;;;26.33;14.25;;;;;;;-0.80;81.70;97079.81;1792134;80;21302;-82
2020/12/16 04:56:14;;;;;;;25.23;15.08;;;;;;;-0.80;81.70;97079.81;1792192;80;21304;-82
2020/12/16 04:58:40;;;;;;;24.07;13.58;;;;;;;-0.68;81.77;97100.89;1792088;80;21626;-82
2020/12/16 05:01:09;;;;;;;27.58;15.32;;;;;;;-0.64;81.71;97083.38;1792072;80;21270;-82
2020/12/16 05:03:36;;;;;;;23.77;14.20;;;;;;;-0.66;81.48;97087.97;1792121;80;21277;-82
2020/12/16 05:06:03;;;;;;;23.83;13.53;;;;;;;-0.72;81.28;97095.74;1792041;80;21657;-82
2020/12/16 05:08:30;;;;;;;25.15;13.32;;;;;;;-0.70;81.36;97099.78;1792149;80;21650;-82
2020/12/16 05:10:57;;;;;;;18.90;10.55;;;;;;;-0.67;81.46;97094.68;1792012;80;21503;-82
2020/12/16 05:13:27;;;;;;;23.15;11.35;;;;;;;-0.62;81.61;97099.59;1791789;80;21524;-82
2020/12/16 05:15:54;;;;;;;20.52;12.43;;;;;;;-0.59;81.68;97098.40;1792263;80;21498;-82
2020/12/16 05:18:25;;;;;;;26.33;15.30;;;;;;;-0.56;81.66;97104.54;1763548;80;21123;-82
2020/12/16 05:21:01;;;;;;;22.93;14.60;;;;;;;-0.63;81.59;97111.01;1792134;80;21152;-82
2020/12/16 05:23:35;;;;;;;21.23;12.80;;;;;;;-0.73;81.83;97096.74;1792185;80;21499;-82
2020/12/16 05:26:10;;;;;;;26.37;14.83;;;;;;;-0.73;81.83;97096.74;1792130;80;21281;-82
2020/12/16 05:28:43;;;;;;;24.10;16.35;;;;;;;-0.60;81.75;97111.91;1792269;80;21139;-82
2020/12/16 05:31:13;;;;;;;26.37;15.98;;;;;;;-0.66;81.73;97107.50;1791645;80;21603;-82
2020/12/16 05:33:49;;;;;;;21.37;12.30;;;;;;;-0.67;81.79;97100.69;1792086;80;21629;-82
2020/12/16 05:36:32;;;;;;;26.05;14.15;;;;;;;-0.58;82.01;97112.22;1792076;80;21144;-82
2020/12/16 05:39:02;;;;;;;17.45;11.12;;;;;;;-0.53;81.80;97118.47;1792088;80;21132;-82
2020/12/16 05:41:33;;;;;;;21.62;11.65;;;;;;;-0.57;81.64;97105.51;1791645;80;21156;-82
2020/12/16 05:44:17;;;;;;;23.00;12.63;;;;;;;-0.43;81.77;97125.89;1794492;80;21140;-82
2020/12/16 05:46:47;;;;;;;19.02;10.58;;;;;;;-0.43;81.77;97125.89;1795457;79;21100;-81
2020/12/16 05:49:30;;;;;;;21.60;11.28;;;;;;;-0.41;81.60;97130.43;1795589;79;21649;-81
2020/12/16 05:52:06;;;;;;;21.17;12.35;;;;;;;-0.55;81.56;97130.88;1795597;79;21084;-82
2020/12/16 05:54:36;;;;;;;23.22;14.03;;;;;;;-0.82;81.96;97116.95;1795444;80;21154;-81
2020/12/16 05:57:24;;;;;;;20.05;11.63;;;;;;;-0.82;81.96;97116.95;1795865;79;21123;-81
2020/12/16 06:00:14;;;;;;;18.90;10.95;;;;;;;-0.85;82.01;97141.23;1795562;79;21541;-82
2020/12/16 06:02:45;;;;;;;19.55;9.95;;;;;;;-0.91;82.14;97136.31;1795832;79;21152;-82
2020/12/16 06:05:17;;;;;;;16.93;9.68;;;;;;;-0.85;82.14;97140.73;1795521;80;21664;-82
2020/12/16 06:07:48;;;;;;;16.23;9.93;;;;;;;-0.85;82.14;97140.73;1795542;80;21148;-82
2020/12/16 06:10:17;;;;;;;19.55;10.72;;;;;;;-0.88;82.02;97142.93;1795423;80;21510;-82
2020/12/16 06:12:46;;;;;;;26.45;14.18;;;;;;;-0.85;81.84;97143.34;1795535;79;21099;-82
2020/12/16 06:15:15;;;;;;;28.60;17.15;;;;;;;-0.84;81.89;97155.39;1795490;79;21125;-82
2020/12/16 06:17:47;;;;;;;35.48;15.88;;;;;;;-1.01;81.75;97128.05;1795787;79;21139;-81
2020/12/16 06:20:17;;;;;;;61.45;31.55;;;;;;;-0.99;81.95;97152.07;1795505;80;21136;-82
2020/12/16 06:22:46;;;;;;;;;;;;;;;-1.16;81.89;97161.17;1798385;79;21115;-81
2020/12/16 06:25:18;;;;;;;46.50;22.55;;;;;;;-1.43;82.69;97147.19;1795434;79;20108;-82
2020/12/16 06:27:51;;;;;;;33.75;15.55;;;;;;;-1.43;82.69;97147.19;1795492;80;21468;-81
2020/12/16 06:30:31;;;;;;;45.08;22.87;;;;;;;-1.34;83.06;97157.77;1795654;79;21533;-82
2020/12/16 06:33:14;;;;;;;56.75;26.62;;;;;;;-1.31;83.30;97156.88;1795487;79;21273;-81
2020/12/16 06:35:47;;;;;;;38.92;20.85;;;;;;;-1.27;83.48;97166.41;1795618;80;21134;-81
2020/12/16 06:38:23;;;;;;;33.48;17.05;;;;;;;-1.20;83.58;97170.67;1795708;80;21135;-81
2020/12/16 06:40:55;;;;;;;24.57;13.28;;;;;;;-1.23;83.18;97155.45;1795598;80;21168;-81
2020/12/16 06:43:35;;;;;;;21.70;12.13;;;;;;;-1.23;83.18;97155.45;1793953;79;21202;-81
2020/12/16 06:46:05;;;;;;;;;;;;;;;-1.16;83.25;97172.89;1774277;80;21503;-82
2020/12/16 06:48:40;;;;;;;23.95;13.60;;;;;;;-1.23;83.35;97178.86;1792080;80;20258;-81
2020/12/16 06:51:14;;;;;;;24.35;14.18;;;;;;;-1.18;83.40;97170.97;1763515;80;21141;-81
2020/12/16 06:53:43;;;;;;;28.75;14.47;;;;;;;-1.14;83.36;97175.59;1791684;80;21147;-82
2020/12/16 06:56:11;;;;;;;26.85;13.20;;;;;;;-1.20;82.89;97171.97;1792069;80;21159;-82
2020/12/16 06:58:39;;;;;;;25.65;13.85;;;;;;;-1.24;82.88;97173.35;1792045;80;21288;-82
2020/12/16 07:01:17;;;;;;;23.50;12.82;;;;;;;-1.11;83.40;97179.14;1792106;80;21614;-82
2020/12/16 07:03:44;;;;;;;51.40;25.62;;;;;;;-0.94;83.33;97162.73;1792096;80;21242;-82
2020/12/16 07:06:30;;;;;;;73.78;36.25;;;;;;;-0.94;83.33;97162.73;1792020;80;21132;-81
2020/12/16 07:09:22;;;;;;;290.30;121.55;;;;;;;-0.97;82.87;97187.34;1791998;80;21296;-82
2020/12/16 07:11:53;;;;;;;24.27;13.22;;;;;;;-0.64;83.35;97169.29;1791807;80;21281;-81
2020/12/16 07:14:34;;;;;;;20.52;12.40;;;;;;;-0.64;83.35;97169.29;1792078;80;21646;-82
2020/12/16 07:17:12;;;;;;;28.38;15.78;;;;;;;-0.48;83.33;97173.86;1792053;80;21278;-82
2020/12/16 07:19:39;;;;;;;30.32;16.75;;;;;;;-0.25;83.20;97180.87;1792106;80;21319;-82
2020/12/16 07:22:24;;;;;;;23.30;13.13;;;;;;;-0.05;82.95;97177.81;1792006;80;21266;-82
2020/12/16 07:24:53;;;;;;;21.60;11.75;;;;;;;0.26;82.85;97177.77;1792526;80;21127;-82
2020/12/16 07:27:24;;;;;;;19.92;12.37;;;;;;;0.65;82.45;97180.91;1792072;80;21343;-82
2020/12/16 07:29:59;;;;;;;21.15;12.28;;;;;;;0.94;81.97;97175.77;1792305;80;21266;-82
2020/12/16 07:32:27;;;;;;;20.37;12.10;;;;;;;1.16;81.35;97181.06;1792152;80;21178;-82
2020/12/16 07:35:01;;;;;;;17.07;10.78;;;;;;;1.41;81.18;97183.02;1792062;80;21143;-82
2020/12/16 07:37:31;;;;;;;16.62;10.70;;;;;;;1.58;80.66;97178.93;1792135;80;21256;-82
2020/12/16 07:40:10;;;;;;;15.50;9.43;;;;;;;1.65;80.37;97177.08;1792492;80;21468;-82
2020/12/16 07:42:35;;;;;;;17.67;10.93;;;;;;;1.70;79.65;97174.66;1790908;80;21138;-82
2020/12/16 07:45:07;;;;;;;14.65;7.83;;;;;;;1.62;79.31;97174.88;1792074;80;21312;-82
2020/12/16 07:47:35;;;;;;;18.02;10.30;;;;;;;1.61;79.05;97182.94;1792011;80;21140;-82
2020/12/16 07:50:06;;;;;;;17.02;9.88;;;;;;;1.47;78.89;97180.36;1791974;80;21313;-82
2020/12/16 07:52:33;;;;;;;19.87;9.85;;;;;;;1.31;79.01;97187.86;1791813;80;21290;-82
2020/12/16 07:55:00;;;;;;;13.53;8.30;;;;;;;1.23;79.20;97182.34;1792130;80;21293;-82
2020/12/16 07:57:35;;;;;;;15.78;9.35;;;;;;;1.15;79.38;97185.98;1792085;80;21115;-83
2020/12/16 08:00:05;;;;;;;15.35;9.63;;;;;;;1.22;79.60;97191.69;1791977;80;21155;-83
2020/12/16 08:02:32;;;;;;;12.10;5.73;;;;;;;1.47;79.45;97200.47;1792455;80;21515;-82
2020/12/16 08:05:03;;;;;;;14.65;9.40;;;;;;;1.58;79.22;97188.08;1791974;80;21641;-82
2020/12/16 08:07:32;;;;;;;16.75;8.68;;;;;;;1.61;79.00;97182.43;1792270;80;21257;-82
2020/12/16 08:10:05;;;;;;;13.08;8.78;;;;;;;1.59;78.82;97187.06;1792486;80;21147;-82
2020/12/16 08:12:41;;;;;;;14.90;9.10;;;;;;;1.58;78.83;97191.19;1791644;80;21282;-82
2020/12/16 08:15:17;;;;;;;14.47;9.08;;;;;;;1.58;78.91;97197.72;1792020;80;21167;-82
2020/12/16 08:17:48;;;;;;;15.15;9.60;;;;;;;1.49;78.83;97203.67;1791969;80;21100;-83
2020/12/16 08:20:22;;;;;;;13.38;7.70;;;;;;;1.42;78.82;97205.52;1792131;80;21148;-82
2020/12/16 08:22:56;;;;;;;18.07;11.12;;;;;;;1.33;78.89;97201.00;1792003;80;21132;-82
2020/12/16 08:25:24;;;;;;;19.73;11.35;;;;;;;1.25;79.15;97216.08;1792419;80;21258;-82
2020/12/16 08:27:55;;;;;;;17.07;11.25;;;;;;;1.16;79.36;97220.73;1792006;80;21139;-82
2020/12/16 08:30:27;;;;;;;19.27;11.97;;;;;;;1.18;79.60;97217.41;1792353;80;21362;-82
2020/12/16 08:33:08;;;;;;;15.58;9.78;;;;;;;1.33;79.63;97219.28;1792098;80;21131;-82
2020/12/16 08:35:56;;;;;;;20.48;11.28;;;;;;;1.48;79.48;97208.59;1791751;80;21142;-82
2020/12/16 08:38:32;;;;;;;11.93;6.83;;;;;;;1.59;79.46;97205.86;1792012;80;21165;-82
2020/12/16 08:41:01;;;;;;;15.35;9.03;;;;;;;1.64;78.98;97206.83;1792025;80;21164;-82
2020/12/16 08:43:38;;;;;;;17.60;9.80;;;;;;;1.67;79.03;97208.23;1791634;80;21142;-82
2020/12/16 08:46:14;;;;;;;24.30;10.75;;;;;;;1.68;78.99;97213.24;1792437;80;21131;-82
2020/12/16 08:48:54;;;;;;;14.75;8.18;;;;;;;1.74;78.89;97218.16;1792522;80;21277;-82
2020/12/16 08:51:35;;;;;;;10.18;6.72;;;;;;;1.81;78.78;97218.13;1792670;80;21273;-83
2020/12/16 08:54:07;;;;;;;15.50;7.55;;;;;;;1.85;78.61;97220.64;1792741;80;21182;-83
2020/12/16 08:56:43;;;;;;;17.50;11.08;;;;;;;1.84;78.54;97218.53;1792517;80;21491;-83
2020/12/16 08:59:24;;;;;;;17.65;10.50;;;;;;;1.90;78.55;97221.62;1792632;80;21123;-83
2020/12/16 09:01:57;;;;;;;14.90;9.03;;;;;;;1.98;78.66;97217.98;1792605;80;21484;-82
2020/12/16 09:04:37;;;;;;;9.08;5.87;;;;;;;2.13;78.73;97227.66;1763948;80;21139;-82
2020/12/16 09:07:14;;;;;;;12.18;7.03;;;;;;;2.18;78.06;97227.81;1792905;80;21123;-83
2020/12/16 09:09:50;;;;;;;9.43;5.80;;;;;;;2.19;77.92;97220.27;1792724;80;21127;-82
2020/12/16 09:12:21;;;;;;;13.05;7.53;;;;;;;2.19;77.71;97212.42;1782046;80;21159;-82
2020/12/16 09:14:52;;;;;;;13.38;8.53;;;;;;;2.27;77.73;97225.27;1792831;80;21160;-83
2020/12/16 09:17:22;;;;;;;15.20;8.30;;;;;;;2.28;77.61;97233.41;1792467;80;21115;-82
2020/12/16 09:19:50;;;;;;;11.35;7.28;;;;;;;2.30;77.37;97239.23;1792760;80;21279;-83
2020/12/16 09:22:27;;;;;;;15.50;8.70;;;;;;;2.32;77.33;97247.66;1792518;80;21147;-82
2020/12/16 09:24:59;;;;;;;13.60;7.37;;;;;;;2.38;77.41;97250.73;1792932;80;21460;-83
2020/12/16 09:27:26;;;;;;;16.55;10.32;;;;;;;2.47;77.21;97246.57;1792779;80;21148;-83
2020/12/16 09:29:54;;;;;;;17.12;10.10;;;;;;;2.50;77.33;97260.03;1792767;80;21487;-83
2020/12/16 09:32:27;;;;;;;13.70;7.87;;;;;;;2.62;77.53;97256.23;1792656;80;21487;-83
2020/12/16 09:34:55;;;;;;;13.88;8.85;;;;;;;2.75;77.31;97261.39;1792710;80;21154;-83
2020/12/16 09:37:28;;;;;;;19.45;11.50;;;;;;;2.85;77.09;97260.92;1792894;80;21143;-83
2020/12/16 09:40:14;;;;;;;18.12;11.38;;;;;;;2.89;76.92;97253.73;1788717;80;21164;-83
2020/12/16 09:42:55;;;;;;;19.30;11.03;;;;;;;2.83;76.56;97245.43;1792436;80;21115;-83
2020/12/16 09:45:22;;;;;;;18.95;10.80;;;;;;;2.78;76.21;97233.97;1792427;80;21312;-83
2020/12/16 09:47:52;;;;;;;13.15;8.35;;;;;;;2.64;75.85;97249.77;1792229;80;21495;-83
2020/12/16 09:50:29;;;;;;;20.67;11.43;;;;;;;2.70;76.24;97248.14;1792371;80;21143;-83
2020/12/16 09:53:03;;;;;;;14.23;7.97;;;;;;;2.71;76.04;97256.80;1792135;80;21269;-84
2020/12/16 09:55:40;;;;;;;18.40;8.53;;;;;;;2.67;75.84;97256.39;1792411;80;21499;-84
2020/12/16 09:58:11;;;;;;;14.53;8.13;;;;;;;2.61;75.87;97254.12;1792209;80;21618;-84
2020/12/16 10:00:41;;;;;;;14.65;8.70;;;;;;;2.63;76.22;97241.63;1791728;80;21658;-84
2020/12/16 10:03:13;;;;;;;13.00;8.43;;;;;;;2.64;75.84;97250.28;1792115;80;21305;-84
2020/12/16 10:05:42;;;;;;;18.05;10.43;;;;;;;2.79;76.30;97248.66;1792268;80;21471;-84
2020/12/16 10:08:12;;;;;;;18.27;12.30;;;;;;;2.96;76.56;97247.15;1792413;80;21280;-84
2020/12/16 10:10:40;;;;;;;18.77;10.48;;;;;;;3.07;76.30;97236.45;1792323;80;21646;-84
2020/12/16 10:13:07;;;;;;;13.45;8.40;;;;;;;3.22;76.08;97242.16;1791816;80;21606;-84
2020/12/16 10:15:35;;;;;;;23.95;14.58;;;;;;;3.17;75.23;97243.33;1792076;80;21239;-84
2020/12/16 10:18:02;;;;;;;22.20;13.45;;;;;;;3.20;75.71;97243.69;1792109;80;21281;-84
2020/12/16 10:20:31;;;;;;;20.80;13.05;;;;;;;3.37;75.67;97249.17;1792287;80;21164;-84
2020/12/16 10:22:58;;;;;;;18.50;10.35;;;;;;;3.58;75.59;97255.84;1792162;80;21626;-84
2020/12/16 10:25:25;;;;;;;15.40;10.45;;;;;;;3.76;75.13;97252.41;1792191;80;21673;-84
2020/12/16 10:27:54;;;;;;;17.57;10.05;;;;;;;3.82;74.26;97251.56;1792343;80;21171;-84
2020/12/16 10:30:25;;;;;;;16.23;10.32;;;;;;;3.98;74.31;97247.53;1792085;80;21277;-84
2020/12/16 10:32:53;;;;;;;15.70;9.28;;;;;;;4.11;74.63;97250.00;1792381;80;21095;-84
2020/12/16 10:35:23;;;;;;;21.77;11.50;;;;;;;4.30;74.24;97253.39;1792273;80;21148;-84
2020/12/16 10:37:51;;;;;;;17.70;11.33;;;;;;;4.36;73.83;97249.37;1792180;80;21265;-84
2020/12/16 10:40:18;;;;;;;18.17;10.45;;;;;;;4.32;73.30;97250.02;1792096;80;21278;-84
2020/12/16 10:42:46;;;;;;;14.83;9.18;;;;;;;4.25;72.96;97257.20;1791784;80;21277;-84
2020/12/16 10:45:13;;;;;;;15.75;10.40;;;;;;;4.15;72.87;97247.22;1792492;80;21190;-84
2020/12/16 10:47:40;;;;;;;17.48;11.08;;;;;;;3.93;72.92;97246.06;1792741;80;21139;-84
2020/12/16 10:50:08;;;;;;;14.70;9.65;;;;;;;3.84;73.41;97249.00;1792646;80;21290;-84
2020/12/16 10:52:35;;;;;;;17.12;10.93;;;;;;;3.74;73.34;97247.91;1792933;80;21148;-84
2020/12/16 10:55:02;;;;;;;18.07;10.93;;;;;;;3.66;73.37;97252.11;1792769;80;21132;-84
2020/12/16 10:57:29;;;;;;;23.70;14.03;;;;;;;3.76;73.82;97249.28;1792747;80;21131;-84
2020/12/16 10:59:56;;;;;;;29.23;17.70;;;;;;;3.99;74.26;97247.31;1792649;80;21483;-84
2020/12/16 11:02:24;;;;;;;37.40;22.00;;;;;;;4.13;73.50;97248.75;1792694;80;21134;-84
2020/12/16 11:04:51;;;;;;;25.23;15.95;;;;;;;4.16;73.40;97254.86;1792740;80;21143;-84
2020/12/16 11:07:18;;;;;;;17.00;10.95;;;;;;;4.13;73.30;97250.06;1792700;80;21523;-84
2020/12/16 11:09:45;;;;;;;17.35;10.98;;;;;;;4.14;72.93;97248.24;1792593;80;21366;-84
2020/12/16 11:12:12;;;;;;;17.00;10.03;;;;;;;4.10;73.01;97246.58;1792336;80;21163;-84
2020/12/16 11:14:39;;;;;;;18.40;11.12;;;;;;;4.12;72.90;97251.09;1792620;80;21163;-84
2020/12/16 11:17:06;;;;;;;21.90;13.15;;;;;;;4.03;72.85;97251.09;1792776;80;21140;-84
2020/12/16 11:19:33;;;;;;;21.65;13.20;;;;;;;3.96;72.89;97246.96;1792777;80;21108;-84
2020/12/16 11:22:03;;;;;;;22.67;13.70;;;;;;;3.95;73.04;97246.16;1792858;80;21130;-84
2020/12/16 11:24:30;;;;;;;19.60;12.00;;;;;;;3.89;72.99;97248.33;1792875;80;21134;-84
2020/12/16 11:26:58;;;;;;;17.50;11.65;;;;;;;3.87;72.84;97241.20;1792718;80;21108;-84
2020/12/16 11:29:26;;;;;;;19.32;10.68;;;;;;;3.72;72.69;97248.64;1792537;80;21104;-84
2020/12/16 11:31:57;;;;;;;16.60;10.75;;;;;;;3.58;72.88;97248.77;1792631;80;21204;-84
2020/12/16 11:34:28;;;;;;;15.85;10.00;;;;;;;3.60;73.39;97249.06;1792753;80;21147;-84